Time;durP1;ratioP1;P1;durP2;ratioP2;P2;SDS_P1;SDS_P2;PMS_P1;PMS_P2;Temp;Humidity;BMP_temperature;BMP_pressure;BME280_temperature;BME280_humidity;BME280_pressure;Samples;Min_cycle;Max_cycle;Signal;HPM_P1;HPM_P2
2024/02/04 00:01:08;;;;;;;3.90;2.35;;;;;;;9.88;57.26;102014.13;5046419;28;20045;-74
2024/02/04 00:03:37;;;;;;;3.30;1.95;;;;;;;9.88;57.03;102016.88;5051148;28;20120;-74
2024/02/04 00:06:07;;;;;;;3.28;1.90;;;;;;;9.87;57.48;102009.63;5052852;28;20127;-74
2024/02/04 00:08:36;;;;;;;3.28;1.67;;;;;;;9.85;57.02;102008.84;5050929;28;20045;-74
2024/02/04 00:11:07;;;;;;;2.83;1.70;;;;;;;9.85;57.51;102017.06;5028717;28;20052;-73
2024/02/04 00:13:36;;;;;;;2.30;1.40;;;;;;;9.84;57.38;102010.72;5051859;28;20065;-74
2024/02/04 00:16:05;;;;;;;2.92;1.50;;;;;;;9.83;57.29;102005.34;5056725;28;20037;-74
2024/02/04 00:18:33;;;;;;;2.33;1.30;;;;;;;9.83;57.16;101988.94;5034861;28;20044;-74
2024/02/04 00:21:03;;;;;;;2.13;1.33;;;;;;;9.85;57.09;101984.25;5033383;28;20041;-74
2024/02/04 00:23:31;;;;;;;3.17;1.40;;;;;;;9.83;57.10;101973.41;5020096;28;20041;-74
2024/02/04 00:25:59;;;;;;;2.17;1.30;;;;;;;9.83;57.17;101984.34;5049088;28;20032;-74
2024/02/04 00:28:27;;;;;;;2.58;1.52;;;;;;;9.83;57.58;101984.34;5047803;28;20087;-74
2024/02/04 00:30:57;;;;;;;3.00;1.70;;;;;;;9.83;57.51;101976.13;5030744;28;20059;-74
2024/02/04 00:33:26;;;;;;;4.00;1.92;;;;;;;9.84;57.44;101968.81;5052390;28;20094;-74
2024/02/04 00:35:54;;;;;;;4.03;2.00;;;;;;;9.84;56.89;101979.75;5039516;28;20057;-75
2024/02/04 00:38:25;;;;;;;3.50;2.22;;;;;;;9.85;57.64;101986.97;5033425;28;20524;-75
2024/02/04 00:40:54;;;;;;;4.75;2.97;;;;;;;9.83;57.15;101984.34;5029255;28;20519;-74
2024/02/04 00:43:22;;;;;;;5.00;2.80;;;;;;;9.83;57.69;101973.41;5034774;28;20698;-74
2024/02/04 00:45:50;;;;;;;4.85;3.00;;;;;;;9.83;57.17;101978.88;5028831;28;20068;-75
2024/02/04 00:48:19;;;;;;;4.50;2.88;;;;;;;9.83;57.15;101980.72;5034034;28;20048;-74
2024/02/04 00:50:47;;;;;;;4.35;2.80;;;;;;;9.83;57.08;101980.72;5027784;28;20133;-74
2024/02/04 00:53:16;;;;;;;4.10;2.75;;;;;;;9.83;57.27;101984.34;5032467;28;20562;-74
2024/02/04 00:55:45;;;;;;;4.47;2.65;;;;;;;9.82;57.40;101979.84;5048315;28;20712;-74
2024/02/04 00:58:13;;;;;;;4.25;2.70;;;;;;;9.80;57.65;101975.47;5027208;28;20053;-74
2024/02/04 01:00:41;;;;;;;3.33;2.30;;;;;;;9.79;57.37;101971.88;5028598;28;20111;-75
2024/02/04 01:03:10;;;;;;;4.53;2.80;;;;;;;9.78;57.34;101972.84;5047605;28;20051;-74
2024/02/04 01:05:38;;;;;;;4.20;2.53;;;;;;;9.79;57.28;101973.72;5054072;28;20550;-74
2024/02/04 01:08:06;;;;;;;3.78;2.50;;;;;;;9.78;57.79;101977.44;5032638;28;20177;-75
2024/02/04 01:10:34;;;;;;;4.13;2.58;;;;;;;9.77;57.19;101975.69;5053686;28;20064;-74
2024/02/04 01:13:04;;;;;;;4.30;2.33;;;;;;;9.77;57.74;101976.56;5048497;28;20516;-74
2024/02/04 01:15:32;;;;;;;3.45;2.30;;;;;;;9.75;57.41;101970.31;5049756;28;20049;-74
2024/02/04 01:18:00;;;;;;;3.10;2.05;;;;;;;9.76;57.69;101974.78;5045082;28;20573;-75
2024/02/04 01:20:29;;;;;;;3.35;2.15;;;;;;;9.75;57.40;101975.78;5046831;28;20609;-75
2024/02/04 01:22:56;;;;;;;3.88;2.40;;;;;;;9.75;57.69;101977.63;5030223;28;20069;-74
2024/02/04 01:25:24;;;;;;;3.30;2.10;;;;;;;9.74;57.36;101970.44;5031741;28;20107;-75
2024/02/04 01:27:52;;;;;;;3.78;2.10;;;;;;;9.75;57.49;101978.50;5043171;28;20135;-75
2024/02/04 01:30:23;;;;;;;3.03;2.20;;;;;;;9.75;57.59;101964.84;5030230;28;20040;-75
2024/02/04 01:32:51;;;;;;;3.63;2.38;;;;;;;9.73;57.58;101965.94;5030208;28;20045;-74
2024/02/04 01:35:19;;;;;;;3.05;1.83;;;;;;;9.72;57.53;101965.06;5049941;28;20042;-74
2024/02/04 01:37:49;;;;;;;2.80;1.92;;;;;;;9.73;57.58;101979.59;5041055;28;20056;-75
2024/02/04 01:40:17;;;;;;;3.60;2.35;;;;;;;9.72;57.68;101975.13;5026867;28;20045;-73
2024/02/04 01:42:45;;;;;;;2.85;2.08;;;;;;;9.71;57.50;101987.91;5028896;28;20508;-74
2024/02/04 01:45:13;;;;;;;3.45;2.20;;;;;;;9.71;58.03;101987.03;5030920;28;20465;-74
2024/02/04 01:47:42;;;;;;;3.63;2.08;;;;;;;9.72;57.75;101980.59;5023849;28;20053;-74
2024/02/04 01:50:11;;;;;;;3.10;2.05;;;;;;;9.70;57.80;101982.53;5049410;28;20373;-74
2024/02/04 01:52:42;;;;;;;3.25;2.10;;;;;;;9.72;57.76;101984.19;5034368;28;20127;-74
2024/02/04 01:55:11;;;;;;;2.95;1.95;;;;;;;9.71;57.69;101965.16;5029112;28;20389;-74
2024/02/04 01:57:40;;;;;;;3.10;2.00;;;;;;;9.71;57.76;101967.91;5042624;28;20033;-74
2024/02/04 02:00:10;;;;;;;3.33;2.35;;;;;;;9.72;58.09;101966.91;5025688;28;20386;-74
2024/02/04 02:02:42;;;;;;;3.08;2.00;;;;;;;9.72;58.18;101965.06;5048278;28;20045;-74
2024/02/04 02:05:10;;;;;;;3.38;2.35;;;;;;;9.70;57.84;101968.88;5029667;28;20045;-75
2024/02/04 02:07:38;;;;;;;3.20;2.17;;;;;;;9.71;57.81;101960.56;5050691;28;20033;-75
2024/02/04 02:10:10;;;;;;;4.38;2.03;;;;;;;9.71;57.92;101960.56;5030275;28;20077;-74
2024/02/04 02:12:44;;;;;;;3.75;2.28;;;;;;;9.71;57.88;101960.56;5047952;28;20448;-74
2024/02/04 02:15:18;;;;;;;3.33;2.22;;;;;;;9.72;58.31;101953.25;5031685;28;20040;-74
2024/02/04 02:17:58;;;;;;;3.95;2.20;;;;;;;9.70;58.05;101953.34;5032683;28;20447;-74
2024/02/04 02:20:33;;;;;;;3.67;2.20;;;;;;;9.73;58.47;101960.47;5029923;28;20071;-74
2024/02/04 02:23:08;;;;;;;3.50;2.10;;;;;;;9.73;58.66;101952.28;5045498;28;20092;-74
2024/02/04 02:29:33;;;;;;;3.53;2.10;;;;;;;9.68;58.21;101948.94;5006005;28;20079;-74
2024/02/04 02:32:03;;;;;;;4.25;1.98;;;;;;;9.69;58.23;101956.19;5043402;28;20610;-73
2024/02/04 02:34:31;;;;;;;3.10;2.20;;;;;;;9.70;58.29;101949.72;5032934;28;20041;-73
2024/02/04 02:37:17;;;;;;;3.05;2.13;;;;;;;9.71;58.71;101957.84;5051546;28;20408;-73
2024/02/04 02:39:51;;;;;;;3.10;1.90;;;;;;;9.70;58.31;101955.19;5054816;28;20784;-73
2024/02/04 02:42:21;;;;;;;3.40;2.00;;;;;;;9.70;58.02;101952.47;5038996;28;20126;-74
2024/02/04 02:44:51;;;;;;;3.33;2.10;;;;;;;9.71;58.21;101957.84;5047104;28;20056;-73
2024/02/04 02:47:20;;;;;;;3.65;2.22;;;;;;;9.70;58.26;101966.13;5039867;28;20404;-73
2024/02/04 02:49:48;;;;;;;4.25;2.22;;;;;;;9.71;58.09;101955.09;5047692;28;20065;-73
2024/02/04 02:52:16;;;;;;;3.95;2.50;;;;;;;9.71;58.24;101967.91;5044739;28;20120;-73
2024/02/04 02:54:44;;;;;;;3.58;2.03;;;;;;;9.71;58.39;101957.84;5038000;28;20052;-73
2024/02/04 02:57:12;;;;;;;3.50;2.00;;;;;;;9.71;58.54;101960.56;5051636;28;20531;-73
2024/02/04 02:59:40;;;;;;;3.30;1.95;;;;;;;9.72;58.30;101953.25;5034323;28;20040;-73
2024/02/04 03:02:11;;;;;;;3.40;2.10;;;;;;;9.74;58.48;101954.03;5046514;28;20095;-74
2024/02/04 03:04:39;;;;;;;3.40;2.00;;;;;;;9.73;58.08;101950.41;5035640;28;20045;-74
2024/02/04 03:07:07;;;;;;;3.65;2.22;;;;;;;9.74;58.65;101948.56;5031115;28;20393;-74
2024/02/04 03:09:35;;;;;;;3.30;2.00;;;;;;;9.74;58.62;101945.81;5039060;28;20109;-74
2024/02/04 03:12:04;;;;;;;3.88;2.30;;;;;;;9.75;58.35;101937.50;5035175;28;20573;-74
2024/02/04 03:14:32;;;;;;;3.45;2.22;;;;;;;9.75;58.67;101945.69;5052914;28;20475;-74
2024/02/04 03:17:01;;;;;;;3.80;2.20;;;;;;;9.76;58.19;101949.31;5033169;28;20555;-74
2024/02/04 03:19:30;;;;;;;3.30;2.28;;;;;;;9.77;58.83;101946.47;5038805;28;20063;-74
2024/02/04 03:21:58;;;;;;;3.05;2.00;;;;;;;9.76;58.76;101943.84;5029499;28;20581;-74
2024/02/04 03:24:27;;;;;;;5.13;2.20;;;;;;;9.77;58.38;101943.75;5033711;28;20112;-73
2024/02/04 03:26:55;;;;;;;3.78;2.30;;;;;;;9.77;58.72;101954.69;5034157;28;20037;-73
2024/02/04 03:29:23;;;;;;;3.28;2.03;;;;;;;9.78;58.67;101947.38;5030025;28;20548;-74
2024/02/04 03:31:51;;;;;;;3.50;2.20;;;;;;;9.79;58.74;101944.53;5029979;28;20123;-74
2024/02/04 03:34:19;;;;;;;4.47;2.15;;;;;;;9.79;58.44;101944.53;5031164;28;20584;-73
2024/02/04 03:36:48;;;;;;;3.50;2.50;;;;;;;9.81;58.59;101934.38;5035722;28;20040;-74
2024/02/04 03:39:16;;;;;;;3.80;2.25;;;;;;;9.79;58.25;101936.34;5036356;28;20037;-74
2024/02/04 03:41:44;;;;;;;3.92;2.40;;;;;;;9.80;58.72;101934.47;5034301;28;20044;-77
2024/02/04 03:44:13;;;;;;;3.40;2.00;;;;;;;9.80;58.21;101939.94;5036055;28;20124;-74
2024/02/04 03:46:41;;;;;;;3.35;2.13;;;;;;;9.80;58.53;101934.47;5038096;28;20070;-74
2024/02/04 03:49:10;;;;;;;3.92;2.38;;;;;;;9.79;58.50;101936.34;5033201;28;20043;-74
2024/02/04 03:51:38;;;;;;;3.70;2.50;;;;;;;9.80;58.38;101937.22;5036624;28;20437;-74
2024/02/04 03:54:07;;;;;;;4.18;2.17;;;;;;;9.82;58.79;101932.53;5031866;28;20033;-74
2024/02/04 03:56:36;;;;;;;3.80;2.35;;;;;;;9.80;58.87;101927.16;5034407;28;20127;-74
2024/02/04 03:59:04;;;;;;;3.88;2.50;;;;;;;9.80;58.65;101929.00;5033746;28;20487;-74
2024/02/04 04:01:32;;;;;;;4.18;2.65;;;;;;;9.81;58.45;101939.84;5024259;28;20140;-74
2024/02/04 04:04:00;;;;;;;4.53;2.80;;;;;;;9.81;58.15;101933.50;5050032;28;20041;-74
2024/02/04 04:06:28;;;;;;;4.05;2.67;;;;;;;9.80;58.70;101935.34;5053340;28;20729;-73
2024/02/04 04:08:58;;;;;;;4.03;2.80;;;;;;;9.80;58.59;101921.69;5050070;28;20468;-73
2024/02/04 04:11:28;;;;;;;4.63;3.10;;;;;;;9.81;58.89;101923.44;5047706;28;20044;-74
2024/02/04 04:13:56;;;;;;;4.60;3.08;;;;;;;9.80;58.72;101929.88;5030847;28;20562;-74
2024/02/04 04:16:24;;;;;;;4.97;2.92;;;;;;;9.82;58.28;101932.53;5053616;28;20055;-74
2024/02/04 04:18:52;;;;;;;6.10;3.40;;;;;;;9.82;58.62;101925.16;5053139;28;20555;-74
2024/02/04 04:21:20;;;;;;;5.20;3.40;;;;;;;9.84;58.32;101933.28;5030046;28;20045;-74
2024/02/04 04:23:48;;;;;;;5.78;3.67;;;;;;;9.83;58.46;101940.59;5032514;28;20132;-75
2024/02/04 04:26:16;;;;;;;6.28;3.72;;;;;;;9.84;58.50;101933.28;5031713;28;20037;-74
2024/02/04 04:28:45;;;;;;;6.18;3.90;;;;;;;9.85;58.69;101938.63;5051494;28;20060;-74
2024/02/04 04:31:13;;;;;;;6.35;4.05;;;;;;;9.85;58.38;101943.22;5044253;28;20049;-74
2024/02/04 04:33:41;;;;;;;5.75;3.72;;;;;;;9.85;58.44;101937.75;5031494;28;20080;-73
2024/02/04 04:36:10;;;;;;;6.50;4.70;;;;;;;9.87;58.80;101943.13;5030273;28;20037;-75
2024/02/04 04:38:37;;;;;;;5.30;3.72;;;;;;;9.86;58.39;101950.47;5026409;28;20107;-74
2024/02/04 04:41:05;;;;;;;6.88;3.58;;;;;;;9.87;58.40;101965.88;5029902;28;20118;-74
2024/02/04 04:43:38;;;;;;;6.38;3.90;;;;;;;9.90;58.63;101971.16;5032651;28;20533;-74
2024/02/04 04:46:07;;;;;;;5.95;4.55;;;;;;;9.90;58.54;101976.63;5055682;28;20091;-74
2024/02/04 04:48:35;;;;;;;6.43;4.38;;;;;;;9.88;58.84;101970.38;5033745;28;20087;-74
2024/02/04 04:51:03;;;;;;;5.35;3.67;;;;;;;9.89;58.43;101961.19;5027744;28;20389;-74
2024/02/04 04:53:31;;;;;;;5.40;3.80;;;;;;;9.90;58.65;101959.34;5047230;28;20037;-74
2024/02/04 04:55:59;;;;;;;6.00;3.97;;;;;;;9.91;58.28;101952.88;5032277;28;20559;-74
2024/02/04 04:58:27;;;;;;;6.93;3.97;;;;;;;9.91;58.40;101937.34;5050759;28;20037;-73
2024/02/04 05:00:54;;;;;;;6.25;4.38;;;;;;;9.93;58.64;101934.50;5054675;28;20051;-74
2024/02/04 05:03:25;;;;;;;6.95;4.30;;;;;;;9.95;58.63;101940.75;5041794;28;20050;-74
2024/02/04 05:05:54;;;;;;;6.68;4.30;;;;;;;9.94;58.13;101936.25;5043965;28;20052;-73
2024/02/04 05:08:22;;;;;;;6.95;4.40;;;;;;;9.94;58.51;101942.63;5030135;28;20499;-75
2024/02/04 05:10:50;;;;;;;6.30;4.65;;;;;;;9.95;58.08;101944.38;5034668;28;20045;-73
2024/02/04 05:13:21;;;;;;;6.53;4.63;;;;;;;9.96;57.99;101940.66;5051974;28;20037;-74
2024/02/04 05:15:52;;;;;;;6.50;4.47;;;;;;;9.95;58.48;101936.16;5032373;28;20037;-74
2024/02/04 05:18:19;;;;;;;6.85;4.65;;;;;;;9.96;58.53;101937.03;5029890;28;20041;-74
2024/02/04 05:20:49;;;;;;;6.70;4.72;;;;;;;9.98;58.22;101943.28;5046472;28;20436;-75
2024/02/04 05:23:17;;;;;;;7.70;5.05;;;;;;;9.97;58.40;101941.53;5055152;28;20120;-74
2024/02/04 05:25:45;;;;;;;6.95;4.38;;;;;;;9.97;58.22;101933.34;5049054;28;20098;-74
2024/02/04 05:28:13;;;;;;;7.35;4.55;;;;;;;9.98;58.36;101932.34;5042512;28;20053;-74
2024/02/04 05:30:41;;;;;;;8.23;4.80;;;;;;;9.98;58.33;101940.56;5038894;23;20057;-76
2024/02/04 05:33:09;;;;;;;7.78;4.90;;;;;;;9.99;58.00;101934.13;5030171;28;20136;-76
2024/02/04 05:35:37;;;;;;;7.68;5.00;;;;;;;9.99;57.94;101939.59;5032578;28;20037;-76
2024/02/04 05:38:07;;;;;;;7.93;4.82;;;;;;;10.00;58.02;101933.97;5001782;28;20496;-76
2024/02/04 05:40:35;;;;;;;6.60;5.00;;;;;;;10.00;57.89;101935.84;5022377;28;20120;-76
2024/02/04 05:43:06;;;;;;;7.72;5.00;;;;;;;10.00;58.33;101927.63;5024461;28;20084;-76
2024/02/04 05:45:40;;;;;;;8.48;5.20;;;;;;;10.00;58.30;101919.44;5016070;28;20059;-76
2024/02/04 05:48:09;;;;;;;11.02;5.95;;;;;;;10.00;57.89;101916.69;5027048;28;20125;-76
2024/02/04 05:50:37;;;;;;;7.95;5.25;;;;;;;10.00;57.77;101911.22;5026761;28;20049;-76
2024/02/04 05:53:06;;;;;;;8.70;5.38;;;;;;;10.00;58.30;101892.97;5027101;28;20042;-76
2024/02/04 05:55:34;;;;;;;8.07;5.15;;;;;;;10.00;58.15;101903.91;5004602;28;20142;-76
2024/02/04 05:58:02;;;;;;;8.18;5.18;;;;;;;10.00;57.95;101903.03;5024393;28;20132;-76
2024/02/04 06:00:30;;;;;;;6.70;4.80;;;;;;;10.00;57.89;101894.81;5012495;28;20045;-76
2024/02/04 06:02:58;;;;;;;6.90;4.85;;;;;;;10.00;58.25;101895.69;5008205;28;20405;-76
2024/02/04 06:05:26;;;;;;;7.35;4.95;;;;;;;10.00;57.85;101883.88;5036178;28;20128;-76
2024/02/04 06:07:54;;;;;;;6.32;4.47;;;;;;;10.01;57.76;101896.56;5020014;28;20061;-76
2024/02/04 06:10:23;;;;;;;7.88;4.93;;;;;;;10.03;57.63;101891.88;5007207;28;20124;-76
2024/02/04 06:12:51;;;;;;;7.30;4.90;;;;;;;10.01;57.74;101886.50;5009689;28;20453;-75
2024/02/04 06:15:20;;;;;;;7.30;4.18;;;;;;;10.02;57.62;101898.34;5032205;28;20523;-76
2024/02/04 06:17:48;;;;;;;7.88;4.72;;;;;;;10.01;57.60;101891.97;5005704;28;20578;-76
2024/02/04 06:20:17;;;;;;;8.32;4.80;;;;;;;10.01;57.76;101902.91;5008188;28;20073;-76
2024/02/04 06:22:45;;;;;;;7.43;4.60;;;;;;;10.01;57.83;101902.91;5032946;28;20069;-76
2024/02/04 06:25:13;;;;;;;7.22;4.18;;;;;;;10.01;58.17;101904.78;5016263;28;20124;-76
2024/02/04 06:27:42;;;;;;;6.95;5.18;;;;;;;10.02;57.86;101891.00;5036590;28;20145;-76
2024/02/04 06:30:12;;;;;;;6.82;4.78;;;;;;;10.03;58.09;101886.41;5005395;28;20052;-76
2024/02/04 06:32:39;;;;;;;8.23;5.15;;;;;;;10.02;57.77;101888.28;5029987;28;20098;-76
2024/02/04 06:35:08;;;;;;;8.63;5.25;;;;;;;10.02;57.51;101888.28;5020012;28;20542;-76
2024/02/04 06:37:36;;;;;;;7.40;4.65;;;;;;;10.02;58.26;101884.66;5009361;28;20038;-76
2024/02/04 06:40:05;;;;;;;7.88;5.15;;;;;;;10.02;58.08;101876.44;5010443;28;20046;-76
2024/02/04 06:42:33;;;;;;;7.22;4.95;;;;;;;10.02;57.76;101870.97;5011026;28;20100;-76
2024/02/04 06:45:02;;;;;;;7.15;4.40;;;;;;;10.03;58.02;101867.28;5027771;28;20528;-76
2024/02/04 06:47:30;;;;;;;7.40;4.50;;;;;;;10.02;57.70;101870.97;5012642;28;20048;-76
2024/02/04 06:49:58;;;;;;;7.53;4.35;;;;;;;10.01;58.13;101875.56;5002716;28;20046;-76
2024/02/04 06:52:26;;;;;;;5.93;4.00;;;;;;;10.00;58.19;101873.81;5031421;28;20079;-76
2024/02/04 06:54:54;;;;;;;7.53;4.22;;;;;;;10.02;57.84;101884.66;5026358;28;20073;-76
2024/02/04 06:57:22;;;;;;;7.07;4.28;;;;;;;10.00;58.18;101884.75;5029664;28;20045;-75
2024/02/04 06:59:50;;;;;;;6.57;4.20;;;;;;;10.01;57.79;101869.22;5021850;28;20065;-76
2024/02/04 07:02:19;;;;;;;5.82;3.63;;;;;;;10.01;57.77;101859.16;5029747;28;20076;-75
2024/02/04 07:04:47;;;;;;;6.68;3.90;;;;;;;9.99;57.81;101857.53;5008854;28;20049;-74
2024/02/04 07:07:19;;;;;;;5.45;3.70;;;;;;;9.97;58.12;101848.56;5036640;28;20098;-77
2024/02/04 07:09:47;;;;;;;5.40;3.28;;;;;;;9.98;58.02;101847.56;5008237;28;20042;-75
2024/02/04 07:12:15;;;;;;;5.22;3.20;;;;;;;9.97;58.30;101857.63;5031035;28;20076;-75
2024/02/04 07:14:43;;;;;;;4.53;3.00;;;;;;;9.98;58.15;101866.72;5022786;28;20068;-75
2024/02/04 07:17:12;;;;;;;4.75;3.00;;;;;;;9.98;58.20;101866.72;4996070;28;20045;-75
2024/02/04 07:19:42;;;;;;;4.28;2.72;;;;;;;9.99;57.85;101869.31;5009307;28;20037;-76
2024/02/04 07:22:10;;;;;;;4.30;2.75;;;;;;;9.98;57.92;101861.25;5013599;28;20527;-74
2024/02/04 07:24:38;;;;;;;3.70;2.30;;;;;;;9.98;57.76;101866.72;5008779;28;20048;-75
2024/02/04 07:27:06;;;;;;;4.45;2.38;;;;;;;9.96;58.19;101871.41;5009263;28;20052;-74
2024/02/04 07:29:34;;;;;;;3.72;2.20;;;;;;;9.96;58.31;101879.63;5002183;28;20061;-75
2024/02/04 07:32:02;;;;;;;3.38;2.15;;;;;;;9.96;58.26;101887.81;5034443;28;20038;-76
2024/02/04 07:34:30;;;;;;;3.50;1.77;;;;;;;9.95;57.86;101880.59;5027021;28;20037;-72
2024/02/04 07:37:00;;;;;;;4.20;2.40;;;;;;;9.97;58.07;101890.47;5034859;28;20112;-72
2024/02/04 07:39:30;;;;;;;3.58;1.88;;;;;;;9.95;57.97;101886.06;5030809;28;20038;-71
2024/02/04 07:41:59;;;;;;;3.72;2.10;;;;;;;9.94;58.31;101885.19;5008255;28;20532;-73
2024/02/04 07:44:28;;;;;;;3.75;1.95;;;;;;;9.95;58.42;101897.00;5030068;28;20512;-77
2024/02/04 07:46:56;;;;;;;3.33;1.73;;;;;;;9.95;58.47;101891.53;5014935;28;20141;-75
2024/02/04 07:49:23;;;;;;;3.60;2.15;;;;;;;9.95;58.42;101889.69;5012495;28;20132;-73
2024/02/04 07:51:52;;;;;;;3.33;1.90;;;;;;;9.93;58.15;101882.56;5011578;28;20037;-78
2024/02/04 07:54:21;;;;;;;3.28;2.00;;;;;;;9.96;58.27;101887.81;5013139;28;20041;-75
2024/02/04 07:56:49;;;;;;;3.83;1.85;;;;;;;9.94;58.13;101885.19;5032758;28;20211;-73
2024/02/04 07:59:17;;;;;;;3.58;1.98;;;;;;;9.95;58.72;101878.75;5036619;28;20049;-73
2024/02/04 08:01:45;;;;;;;3.60;2.00;;;;;;;9.93;58.36;101872.50;5009288;28;20054;-74
2024/02/04 08:04:13;;;;;;;3.60;2.08;;;;;;;9.94;58.42;101879.72;5029511;28;20409;-74
2024/02/04 08:06:41;;;;;;;3.70;2.20;;;;;;;9.94;58.40;101876.09;5034410;28;20049;-73
2024/02/04 08:09:09;;;;;;;3.67;2.28;;;;;;;9.95;58.11;101877.84;5010761;28;20073;-74
2024/02/04 08:11:40;;;;;;;3.97;2.17;;;;;;;9.96;58.30;101866.81;5032561;28;20045;-74
2024/02/04 08:14:08;;;;;;;3.83;2.30;;;;;;;9.94;58.10;101868.78;5007537;28;20177;-73
2024/02/04 08:16:36;;;;;;;3.75;2.17;;;;;;;9.95;58.23;101866.91;5009464;28;20041;-74
2024/02/04 08:19:06;;;;;;;3.25;2.03;;;;;;;9.95;58.18;101864.19;5030148;28;20042;-73
2024/02/04 08:21:34;;;;;;;3.40;1.85;;;;;;;9.96;58.59;101863.22;5017364;28;20049;-74
2024/02/04 08:24:02;;;;;;;3.30;1.90;;;;;;;9.96;58.59;101875.03;5030964;28;20125;-73
2024/02/04 08:26:30;;;;;;;3.50;2.00;;;;;;;9.96;58.31;101885.97;5030154;28;20450;-73
2024/02/04 08:29:00;;;;;;;3.15;1.80;;;;;;;9.99;58.49;101885.72;5036621;28;20103;-74
2024/02/04 08:31:31;;;;;;;2.60;1.60;;;;;;;9.97;58.28;101879.53;5030981;28;20464;-73
2024/02/04 08:33:59;;;;;;;3.13;1.70;;;;;;;9.98;58.35;101880.41;5039078;28;20586;-73
2024/02/04 08:36:27;;;;;;;2.78;1.65;;;;;;;9.98;58.58;101880.41;5030788;28;20049;-74
2024/02/04 08:38:55;;;;;;;2.35;1.35;;;;;;;9.98;58.33;101874.94;5041470;28;20509;-76
2024/02/04 08:41:23;;;;;;;2.55;1.50;;;;;;;9.97;58.77;101871.31;5007372;28;20061;-74
2024/02/04 08:43:51;;;;;;;2.78;1.58;;;;;;;9.99;58.42;101883.00;5028937;28;20046;-74
2024/02/04 08:46:20;;;;;;;2.60;1.58;;;;;;;10.00;58.87;101875.66;5004360;28;20131;-73
2024/02/04 08:48:49;;;;;;;3.60;1.60;;;;;;;9.99;58.45;101873.94;5003747;28;20065;-74
2024/02/04 08:51:18;;;;;;;3.17;1.70;;;;;;;9.98;58.84;101875.81;5017391;28;20489;-74
2024/02/04 08:53:46;;;;;;;2.83;1.70;;;;;;;9.98;58.94;101880.41;5015207;28;20053;-73
2024/02/04 08:56:14;;;;;;;3.30;1.90;;;;;;;9.99;58.73;101863.84;5003318;28;20041;-73
2024/02/04 08:58:42;;;;;;;3.55;1.92;;;;;;;9.99;58.90;101866.59;5028379;28;20073;-73
2024/02/04 09:01:10;;;;;;;3.40;2.20;;;;;;;10.00;58.30;101872.94;5025379;28;20128;-74
2024/02/04 09:03:40;;;;;;;3.92;2.03;;;;;;;10.03;58.37;101883.69;5010552;28;20041;-73
2024/02/04 09:06:08;;;;;;;3.75;1.90;;;;;;;10.01;58.57;101871.97;5011120;28;20508;-74
2024/02/04 09:08:36;;;;;;;4.15;1.90;;;;;;;10.02;58.40;101869.13;5025681;28;20453;-73
2024/02/04 09:11:04;;;;;;;4.90;2.13;;;;;;;10.03;58.84;101868.16;5031855;28;20112;-73
2024/02/04 09:13:32;;;;;;;5.78;2.38;;;;;;;10.04;58.66;101864.44;5024469;28;20499;-73
2024/02/04 09:16:00;;;;;;;3.28;2.13;;;;;;;10.05;58.95;101865.31;5030991;28;20112;-73
2024/02/04 09:18:28;;;;;;;3.58;2.05;;;;;;;10.06;58.46;101876.16;5031732;28;20056;-73
2024/02/04 09:20:58;;;;;;;4.25;2.00;;;;;;;10.09;58.64;101880.50;5006411;28;20045;-74
2024/02/04 09:23:26;;;;;;;2.95;1.92;;;;;;;10.08;58.52;101881.50;5026096;28;20461;-74
2024/02/04 09:25:54;;;;;;;3.92;1.85;;;;;;;10.10;58.45;101899.56;5010855;28;20045;-74
2024/02/04 09:28:23;;;;;;;3.53;2.00;;;;;;;10.11;58.84;101892.22;5007309;28;20083;-73
2024/02/04 09:30:51;;;;;;;3.35;1.95;;;;;;;10.11;58.85;101890.38;5010450;28;20045;-73
2024/02/04 09:33:19;;;;;;;3.67;2.00;;;;;;;10.12;58.54;101893.97;5029952;28;20500;-73
2024/02/04 09:35:49;;;;;;;5.13;2.10;;;;;;;10.13;58.42;101885.69;5004657;28;20053;-73
2024/02/04 09:38:22;;;;;;;4.20;1.80;;;;;;;10.16;58.71;101884.56;5035203;28;20038;-74
2024/02/04 09:40:53;;;;;;;3.78;1.95;;;;;;;10.14;58.73;101887.44;5029061;28;20045;-73
2024/02/04 09:43:22;;;;;;;4.25;2.00;;;;;;;10.15;58.95;101894.63;5034669;28;20034;-74
2024/02/04 09:45:50;;;;;;;3.78;2.08;;;;;;;10.15;58.81;101889.16;5011699;28;20045;-74
2024/02/04 09:48:20;;;;;;;3.10;1.73;;;;;;;10.17;58.37;101894.53;5026179;28;20045;-74
2024/02/04 09:50:51;;;;;;;4.20;1.83;;;;;;;10.16;58.55;101885.44;5007115;28;20049;-74
2024/02/04 09:53:26;;;;;;;3.67;2.03;;;;;;;10.18;58.91;101882.59;5028191;28;20065;-74
2024/02/04 09:55:56;;;;;;;3.55;1.83;;;;;;;10.19;58.45;101884.38;5018074;28;20124;-72
2024/02/04 09:58:25;;;;;;;3.50;1.88;;;;;;;10.17;58.88;101876.25;5009068;28;20177;-75
2024/02/04 10:00:55;;;;;;;3.47;1.98;;;;;;;10.19;58.72;101881.63;5034481;28;20049;-75
2024/02/04 10:03:23;;;;;;;3.25;1.90;;;;;;;10.19;58.36;101881.63;5006003;28;20069;-75
2024/02/04 10:05:51;;;;;;;3.50;2.05;;;;;;;10.18;59.00;101880.75;5030755;28;20492;-76
2024/02/04 10:08:21;;;;;;;2.80;1.70;;;;;;;10.21;58.52;101879.66;5003640;28;20053;-76
2024/02/04 10:10:50;;;;;;;4.05;2.05;;;;;;;10.20;58.90;101880.66;5022928;28;20520;-76
2024/02/04 10:13:18;;;;;;;3.28;1.98;;;;;;;10.21;58.87;101877.81;5006948;28;20095;-76
2024/02/04 10:15:46;;;;;;;4.47;2.40;;;;;;;10.23;58.50;101877.72;5003463;28;20544;-76
2024/02/04 10:18:14;;;;;;;4.00;2.10;;;;;;;10.26;58.98;101874.75;5024326;28;20041;-77
2024/02/04 10:20:44;;;;;;;3.60;2.15;;;;;;;10.28;58.53;101883.72;5016164;28;20042;-76
2024/02/04 10:23:12;;;;;;;3.58;1.90;;;;;;;10.28;58.64;101872.78;5026965;28;20071;-76
2024/02/04 10:25:41;;;;;;;4.38;2.33;;;;;;;10.31;58.82;101875.31;5007120;28;20045;-74
2024/02/04 10:28:09;;;;;;;4.82;2.20;;;;;;;10.32;59.28;101878.94;5028425;28;20475;-73
2024/02/04 10:30:39;;;;;;;4.00;2.40;;;;;;;10.34;58.71;101879.66;5028868;28;20046;-74
2024/02/04 10:33:07;;;;;;;4.18;2.20;;;;;;;10.35;58.67;101882.31;5026944;28;20441;-75
2024/02/04 10:35:36;;;;;;;5.60;2.55;;;;;;;10.37;58.63;101888.56;5028407;28;20048;-76
2024/02/04 10:38:04;;;;;;;4.20;2.25;;;;;;;10.39;58.25;101875.66;5005868;28;20402;-75
2024/02/04 10:40:32;;;;;;;5.15;2.83;;;;;;;10.39;58.86;101869.28;5025944;28;20037;-76
2024/02/04 10:43:05;;;;;;;4.40;2.65;;;;;;;10.43;58.55;101877.16;5028933;28;20038;-76
2024/02/04 10:45:39;;;;;;;5.13;2.78;;;;;;;10.43;58.57;101877.16;5015017;28;20133;-75
2024/02/04 10:48:08;;;;;;;5.57;3.05;;;;;;;10.43;58.29;101879.91;5036658;28;20588;-76
2024/02/04 10:50:37;;;;;;;5.82;3.22;;;;;;;10.43;58.75;101871.69;5005947;28;20046;-76
2024/02/04 10:53:07;;;;;;;5.22;2.67;;;;;;;10.45;58.27;101866.09;5034304;28;20044;-75
2024/02/04 10:55:41;;;;;;;5.65;2.78;;;;;;;10.47;58.20;101873.25;5036994;28;20589;-75
2024/02/04 10:58:13;;;;;;;4.75;3.03;;;;;;;10.47;57.98;101873.25;5012323;28;20052;-76
2024/02/04 11:00:42;;;;;;;5.78;3.40;;;;;;;10.44;58.23;101875.31;5026331;28;20072;-77
2024/02/04 11:03:12;;;;;;;4.72;3.22;;;;;;;10.47;58.19;101865.03;5035242;28;20043;-75
2024/02/04 11:05:43;;;;;;;6.20;3.03;;;;;;;10.47;58.18;101875.97;5008031;28;20041;-75
2024/02/04 11:08:13;;;;;;;5.10;3.33;;;;;;;10.48;58.07;101863.16;5014711;28;20469;-75
2024/02/04 11:10:41;;;;;;;4.78;2.80;;;;;;;10.47;58.08;101867.75;5036514;28;20381;-75
2024/02/04 11:13:12;;;;;;;4.47;2.85;;;;;;;10.49;58.13;101865.78;5030183;28;20396;-75
2024/02/04 11:15:44;;;;;;;4.82;2.65;;;;;;;10.49;58.03;101857.56;5016197;28;20128;-75
2024/02/04 11:18:38;;;;;;;4.20;2.42;;;;;;;10.47;57.86;101855.94;5014249;28;20038;-75
2024/02/04 11:21:42;;;;;;;4.75;2.47;;;;;;;10.46;58.20;101852.31;5028061;28;20037;-76
2024/02/04 11:24:33;;;;;;;4.05;2.50;;;;;;;10.49;58.02;101848.47;5023639;28;20037;-76
2024/02/04 11:27:02;;;;;;;3.90;2.28;;;;;;;10.46;58.14;101846.84;5029010;28;20048;-76
2024/02/04 11:29:31;;;;;;;5.15;2.65;;;;;;;10.48;57.91;101842.13;5021796;28;20573;-76
2024/02/04 11:31:59;;;;;;;4.22;2.40;;;;;;;10.47;58.33;101834.91;5004959;28;20041;-76
2024/02/04 11:34:28;;;;;;;4.60;2.85;;;;;;;10.47;58.35;101831.31;5023930;28;20046;-76
2024/02/04 11:36:58;;;;;;;4.13;2.38;;;;;;;10.47;57.82;101828.56;5031644;28;20045;-76
2024/02/04 11:39:27;;;;;;;3.88;2.25;;;;;;;10.47;58.33;101829.44;5016844;28;20051;-75
2024/02/04 11:41:55;;;;;;;3.72;2.47;;;;;;;10.46;57.83;101835.91;5022941;28;20056;-75